Time;durP1;ratioP1;P1;durP2;ratioP2;P2;SDS_P1;SDS_P2;PMS_P1;PMS_P2;Temp;Humidity;BMP_temperature;BMP_pressure;BME280_temperature;BME280_humidity;BME280_pressure;Samples;Min_cycle;Max_cycle;Signal;HPM_P1;HPM_P2
2023/06/21 00:00:58;;;;;;;5.00;4.25;;;;;;;22.33;88.41;100380.06;4968890;28;20212;-84
2023/06/21 00:03:25;;;;;;;4.72;4.32;;;;;;;22.29;88.90;100377.88;4958153;28;20213;-84
2023/06/21 00:05:51;;;;;;;5.80;4.57;;;;;;;22.26;89.01;100375.50;4966354;28;20300;-83
2023/06/21 00:08:18;;;;;;;4.20;3.75;;;;;;;22.23;89.22;100373.16;4976906;28;20224;-86
2023/06/21 00:10:44;;;;;;;6.32;4.60;;;;;;;22.21;89.52;100380.66;4976688;28;20298;-87
2023/06/21 00:13:11;;;;;;;5.47;4.97;;;;;;;22.17;89.51;100363.88;4977188;28;20266;-84
2023/06/21 00:15:39;;;;;;;5.07;4.32;;;;;;;22.14;89.46;100366.94;4976957;28;20219;-86
2023/06/21 00:18:05;;;;;;;5.50;4.20;;;;;;;22.08;89.88;100352.22;4974764;28;20228;-84
2023/06/21 00:20:32;;;;;;;5.18;4.22;;;;;;;22.04;90.20;100350.88;4980399;28;20717;-83
2023/06/21 00:22:58;;;;;;;6.88;4.90;;;;;;;22.01;90.71;100347.72;4982548;28;20681;-84
2023/06/21 00:25:24;;;;;;;4.80;4.40;;;;;;;21.98;91.55;100338.03;4976964;28;20224;-85
2023/06/21 00:27:51;;;;;;;5.80;4.68;;;;;;;21.96;91.57;100353.63;4977075;28;20227;-83
2023/06/21 00:30:18;;;;;;;5.13;4.63;;;;;;;21.93;91.46;100343.13;4958039;28;20209;-83
2023/06/21 00:32:45;;;;;;;4.88;4.47;;;;;;;21.90;91.66;100340.78;4957402;28;20213;-84
2023/06/21 00:35:12;;;;;;;6.75;4.93;;;;;;;21.87;91.71;100354.69;4957318;28;20223;-84
2023/06/21 00:37:38;;;;;;;5.78;4.97;;;;;;;21.85;92.08;100354.03;4956993;28;20573;-84
2023/06/21 00:40:10;;;;;;;4.85;4.43;;;;;;;21.83;92.10;100339.81;4956915;28;20209;-85
2023/06/21 00:42:36;;;;;;;4.85;4.35;;;;;;;21.80;92.31;100353.72;4956917;28;20193;-84
2023/06/21 00:45:04;;;;;;;5.20;4.28;;;;;;;21.78;92.27;100347.63;4957076;28;20236;-84
2023/06/21 00:47:30;;;;;;;4.72;4.20;;;;;;;21.75;92.53;100334.41;4961664;28;20204;-83
2023/06/21 00:49:58;;;;;;;5.05;4.47;;;;;;;21.72;92.59;100334.75;4976366;28;20210;-86
2023/06/21 00:52:25;;;;;;;4.63;4.22;;;;;;;21.70;92.94;100331.38;4975981;28;20585;-86
2023/06/21 00:54:52;;;;;;;5.45;4.57;;;;;;;21.69;93.01;100340.53;4976297;28;20259;-84
2023/06/21 00:57:19;;;;;;;4.90;4.20;;;;;;;21.65;92.94;100331.94;4976768;28;20212;-85
2023/06/21 00:59:46;;;;;;;5.10;4.60;;;;;;;21.66;93.21;100349.03;4976535;28;20235;-85
2023/06/21 01:02:13;;;;;;;4.40;4.00;;;;;;;21.66;93.40;100346.34;4976031;28;20674;-86
2023/06/21 01:04:41;;;;;;;5.55;4.38;;;;;;;21.64;93.35;100349.22;4976384;28;20224;-83
2023/06/21 01:07:18;;;;;;;4.30;3.90;;;;;;;21.61;93.04;100357.69;4977096;28;20212;-84
2023/06/21 01:09:59;;;;;;;4.35;3.95;;;;;;;21.59;92.74;100361.59;4976719;28;20764;-85
2023/06/21 01:12:37;;;;;;;4.85;3.85;;;;;;;21.56;92.55;100359.22;4976400;28;20195;-83
2023/06/21 01:15:17;;;;;;;4.93;4.28;;;;;;;21.51;92.63;100351.63;4976318;28;20200;-83
2023/06/21 01:17:46;;;;;;;5.00;4.20;;;;;;;21.51;92.52;100354.31;4976438;28;20192;-85
2023/06/21 01:20:18;;;;;;;7.00;4.57;;;;;;;21.47;92.48;100355.72;4976057;28;20208;-83
2023/06/21 01:23:09;;;;;;;4.85;4.03;;;;;;;21.46;92.39;100352.16;4975756;28;20191;-83
2023/06/21 01:25:46;;;;;;;4.55;4.15;;;;;;;21.44;92.47;100343.34;4975977;28;20212;-86
2023/06/21 01:28:34;;;;;;;5.22;4.70;;;;;;;21.42;92.35;100344.56;4976415;28;20262;-85
2023/06/21 01:31:03;;;;;;;5.63;4.82;;;;;;;21.38;92.77;100346.75;4976395;28;20188;-85
2023/06/21 01:33:31;;;;;;;5.72;4.97;;;;;;;21.37;92.78;100345.06;4976251;28;20216;-84
2023/06/21 01:36:02;;;;;;;5.32;4.57;;;;;;;21.34;92.88;100348.13;4975127;28;20212;-83
2023/06/21 01:38:28;;;;;;;5.72;4.47;;;;;;;21.33;92.96;100348.28;4975602;28;20239;-85
2023/06/21 01:40:55;;;;;;;5.47;4.97;;;;;;;21.30;93.44;100357.63;4975257;28;20208;-83
2023/06/21 01:43:22;;;;;;;5.68;4.82;;;;;;;21.27;93.56;100347.13;4975449;28;20215;-84
2023/06/21 01:45:50;;;;;;;6.82;5.57;;;;;;;21.24;93.83;100347.47;4975348;28;20598;-84
2023/06/21 01:48:18;;;;;;;7.15;5.30;;;;;;;21.20;94.20;100345.28;4975724;28;20247;-85
2023/06/21 01:50:46;;;;;;;5.50;5.00;;;;;;;21.18;94.19;100350.84;4974809;28;20235;-84
2023/06/21 01:53:14;;;;;;;6.13;5.22;;;;;;;21.14;93.98;100350.31;4976347;28;20215;-83
2023/06/21 01:55:44;;;;;;;6.57;4.50;;;;;;;21.11;94.25;100352.56;4975575;28;20223;-84
2023/06/21 01:58:12;;;;;;;5.93;4.47;;;;;;;21.07;94.46;100340.38;4975058;28;20245;-83
2023/06/21 02:00:39;;;;;;;6.07;5.10;;;;;;;21.07;94.18;100343.09;4975180;28;20242;-84
2023/06/21 02:03:09;;;;;;;8.80;5.32;;;;;;;21.03;94.29;100331.75;4974910;28;20208;-84
2023/06/21 02:05:38;;;;;;;6.35;4.93;;;;;;;21.00;94.29;100337.50;4974528;28;20212;-83
2023/06/21 02:08:06;;;;;;;5.65;4.85;;;;;;;20.99;94.56;100348.50;4973959;28;20588;-83
2023/06/21 02:10:32;;;;;;;6.05;5.28;;;;;;;20.96;94.75;100346.16;4974584;28;20220;-85
2023/06/21 02:12:59;;;;;;;5.65;5.03;;;;;;;20.94;94.77;100350.91;4974204;28;20210;-87
2023/06/21 02:15:26;;;;;;;6.47;5.53;;;;;;;20.92;94.80;100355.63;4974534;28;20208;-85
2023/06/21 02:17:53;;;;;;;5.75;5.25;;;;;;;20.92;95.05;100369.16;4974972;28;20717;-86
2023/06/21 02:20:22;;;;;;;5.25;4.75;;;;;;;20.91;95.16;100378.31;4974040;28;20648;-85
2023/06/21 02:22:50;;;;;;;6.03;5.23;;;;;;;20.90;95.16;100382.03;4973975;28;20295;-85
2023/06/21 02:25:18;;;;;;;6.93;5.15;;;;;;;20.90;95.34;100387.44;4974788;28;20697;-83
2023/06/21 02:27:44;;;;;;;7.75;5.43;;;;;;;20.88;95.20;100401.16;4974534;28;20702;-83
2023/06/21 02:30:12;;;;;;;7.75;5.80;;;;;;;20.87;95.14;100404.00;4974394;28;20208;-85
2023/06/21 02:32:38;;;;;;;8.30;5.70;;;;;;;20.85;95.35;100398.78;4974220;28;20218;-83
2023/06/21 02:35:06;;;;;;;7.35;5.55;;;;;;;20.80;95.44;100399.28;4974237;28;20222;-84
2023/06/21 02:37:33;;;;;;;8.55;5.53;;;;;;;20.82;95.36;100403.66;4974151;28;20192;-83
2023/06/21 02:40:08;;;;;;;6.95;5.57;;;;;;;20.77;95.52;100410.47;4974385;28;20654;-83
2023/06/21 02:42:35;;;;;;;6.63;5.90;;;;;;;20.76;95.91;100418.75;4973910;28;20196;-81
2023/06/21 02:45:01;;;;;;;7.22;6.38;;;;;;;20.73;96.09;100427.19;4968675;28;20208;-80
2023/06/21 02:47:28;;;;;;;7.50;6.00;;;;;;;20.68;96.26;100433.09;4960792;28;20200;-81
2023/06/21 02:49:54;;;;;;;8.20;6.40;;;;;;;20.66;96.63;100445.94;4970864;28;20215;-80
2023/06/21 02:52:20;;;;;;;10.07;6.40;;;;;;;20.65;97.02;100452.38;4967174;28;20211;-80
2023/06/21 02:54:47;;;;;;;9.73;6.43;;;;;;;20.64;97.20;100458.78;4970741;28;20564;-81
2023/06/21 02:57:15;;;;;;;14.25;6.72;;;;;;;20.61;97.42;100456.41;4968650;28;20683;-80
2023/06/21 02:59:42;;;;;;;9.77;6.53;;;;;;;20.60;97.86;100451.22;4956826;28;20224;-80
2023/06/21 03:02:09;;;;;;;8.25;6.22;;;;;;;20.58;98.25;100454.06;4964953;28;20274;-80
2023/06/21 03:04:35;;;;;;;8.53;6.37;;;;;;;20.58;98.87;100462.19;4963323;28;20211;-80
2023/06/21 03:07:02;;;;;;;9.52;6.05;;;;;;;20.59;98.92;100460.34;4966141;28;20251;-80
2023/06/21 03:09:28;;;;;;;8.93;5.57;;;;;;;20.59;99.35;100474.72;4970633;28;20221;-80
2023/06/21 03:11:55;;;;;;;8.13;5.87;;;;;;;20.58;99.38;100475.72;4967027;28;20216;-80
2023/06/21 03:14:23;;;;;;;10.90;6.10;;;;;;;20.58;99.51;100470.31;4964563;28;20235;-80
2023/06/21 03:16:50;;;;;;;9.10;6.37;;;;;;;20.59;99.43;100471.16;4957316;28;20206;-80
2023/06/21 03:19:17;;;;;;;10.10;6.00;;;;;;;20.59;99.77;100479.28;4965791;28;20633;-80
2023/06/21 03:21:44;;;;;;;13.40;6.07;;;;;;;20.59;100.00;100482.81;4961970;28;20220;-80
2023/06/21 03:24:10;;;;;;;9.53;6.77;;;;;;;20.58;100.00;100481.13;4966521;28;20269;-81
2023/06/21 03:26:37;;;;;;;7.37;6.43;;;;;;;20.60;100.00;100495.31;4964210;28;20235;-80
2023/06/21 03:29:03;;;;;;;7.50;6.70;;;;;;;20.61;100.00;100506.97;4966762;28;20227;-80
2023/06/21 03:31:31;;;;;;;9.65;6.97;;;;;;;20.63;100.00;100504.97;4971577;28;20204;-80
2023/06/21 03:33:57;;;;;;;8.50;6.28;;;;;;;20.63;100.00;100511.22;4971577;28;20697;-81
2023/06/21 03:36:24;;;;;;;10.07;6.38;;;;;;;20.65;100.00;100525.44;4969152;28;20209;-81
2023/06/21 03:38:50;;;;;;;7.25;6.55;;;;;;;20.67;100.00;100517.16;4974015;28;20239;-81
2023/06/21 03:41:17;;;;;;;9.10;6.85;;;;;;;20.68;100.00;100522.41;4969365;28;20219;-80
2023/06/21 03:43:43;;;;;;;8.20;6.73;;;;;;;20.69;100.00;100524.09;4966163;28;20215;-81
2023/06/21 03:46:10;;;;;;;8.02;5.97;;;;;;;20.71;100.00;100526.66;4969384;28;20239;-80
2023/06/21 03:48:39;;;;;;;7.60;6.75;;;;;;;20.71;100.00;100535.63;4973154;28;20274;-80
2023/06/21 03:51:05;;;;;;;10.57;6.95;;;;;;;20.72;100.00;100545.44;4965985;28;20220;-80
2023/06/21 03:53:31;;;;;;;9.05;7.32;;;;;;;20.73;100.00;100557.94;4973875;28;20211;-81
2023/06/21 03:55:58;;;;;;;8.40;6.78;;;;;;;20.73;100.00;100557.94;4972989;28;20234;-81
2023/06/21 03:58:24;;;;;;;10.20;6.57;;;;;;;20.75;100.00;100558.63;4966192;28;20229;-81
2023/06/21 04:00:51;;;;;;;8.90;6.90;;;;;;;20.73;100.00;100549.84;4966367;28;20212;-82
2023/06/21 04:03:18;;;;;;;7.72;6.93;;;;;;;20.72;100.00;100558.13;4973392;28;20204;-82
2023/06/21 04:05:46;;;;;;;7.70;6.32;;;;;;;20.73;100.00;100576.91;4966681;28;20367;-81
2023/06/21 04:08:12;;;;;;;7.95;6.47;;;;;;;20.73;100.00;100582.31;4972501;28;20242;-81
2023/06/21 04:10:41;;;;;;;8.63;6.90;;;;;;;20.74;100.00;100586.72;4968125;28;20200;-80
2023/06/21 04:13:08;;;;;;;8.35;6.85;;;;;;;20.75;100.00;100580.28;4972265;28;20682;-80
2023/06/21 04:15:34;;;;;;;8.15;6.68;;;;;;;20.75;100.00;100591.13;4965332;28;20201;-81
2023/06/21 04:18:01;;;;;;;10.05;7.25;;;;;;;20.78;100.00;100584.53;4969477;28;20587;-81
2023/06/21 04:20:27;;;;;;;9.00;7.30;;;;;;;20.78;100.00;100582.63;4972104;28;20204;-82
2023/06/21 04:22:55;;;;;;;11.52;7.38;;;;;;;20.79;100.00;100586.19;4964117;28;20212;-82
2023/06/21 04:25:22;;;;;;;7.90;7.03;;;;;;;20.79;100.00;100584.34;4973921;28;20204;-82
2023/06/21 04:27:48;;;;;;;7.85;6.95;;;;;;;20.79;100.00;100589.75;4970472;28;20323;-82
2023/06/21 04:30:15;;;;;;;9.10;8.23;;;;;;;20.77;100.00;100597.22;4971006;28;20212;-81
2023/06/21 04:32:45;;;;;;;8.65;7.75;;;;;;;20.76;100.00;100589.25;4965827;28;20212;-80
2023/06/21 04:35:14;;;;;;;8.18;7.38;;;;;;;20.75;100.00;100596.53;4972253;28;20266;-81
2023/06/21 04:37:44;;;;;;;9.23;7.75;;;;;;;20.75;100.00;100601.09;4968805;28;20556;-81
2023/06/21 04:40:14;;;;;;;8.40;7.60;;;;;;;20.74;100.00;100597.53;4964416;28;20212;-81
2023/06/21 04:42:42;;;;;;;9.85;7.75;;;;;;;20.75;100.00;100606.50;4966907;28;20291;-81
2023/06/21 04:45:10;;;;;;;9.30;8.27;;;;;;;20.77;100.00;100605.34;4970336;28;20207;-81
2023/06/21 04:47:37;;;;;;;9.05;7.20;;;;;;;20.77;100.00;100596.38;4972534;28;20235;-81
2023/06/21 04:50:05;;;;;;;7.75;7.05;;;;;;;20.75;99.54;100592.97;4969533;28;20250;-81
2023/06/21 04:52:32;;;;;;;9.15;7.70;;;;;;;20.73;99.17;100597.69;4970047;28;20266;-81
2023/06/21 04:55:01;;;;;;;8.48;7.60;;;;;;;20.72;99.15;100602.25;4971912;28;20204;-82
2023/06/21 04:57:29;;;;;;;8.95;7.53;;;;;;;20.74;98.87;100607.50;4970004;28;20211;-82
2023/06/21 04:59:55;;;;;;;10.97;8.27;;;;;;;20.73;98.67;100627.47;4968399;28;20212;-81
2023/06/21 05:02:21;;;;;;;8.90;8.00;;;;;;;20.75;98.73;100620.88;4965268;28;20218;-81
2023/06/21 05:04:48;;;;;;;10.70;8.07;;;;;;;20.74;98.65;100619.19;4969118;28;20220;-82
2023/06/21 05:07:14;;;;;;;8.05;7.25;;;;;;;20.75;98.40;100622.75;4974440;28;20234;-82
2023/06/21 05:09:41;;;;;;;7.63;6.93;;;;;;;20.75;98.37;100626.31;4974226;28;20238;-81
2023/06/21 05:12:09;;;;;;;8.03;6.80;;;;;;;20.75;98.31;100622.75;4971400;28;20231;-82
2023/06/21 05:14:37;;;;;;;12.33;6.93;;;;;;;20.79;98.57;100616.81;4969064;28;20208;-81
2023/06/21 05:17:03;;;;;;;7.13;6.43;;;;;;;20.83;98.62;100616.50;4967015;28;20631;-83
2023/06/21 05:19:30;;;;;;;7.88;7.07;;;;;;;20.85;98.38;100600.94;4963096;28;20232;-81
2023/06/21 05:21:56;;;;;;;7.53;6.68;;;;;;;20.88;98.32;100608.75;4976918;28;20212;-81
2023/06/21 05:24:23;;;;;;;7.30;6.60;;;;;;;20.92;98.04;100612.81;4972202;28;20211;-81
2023/06/21 05:26:49;;;;;;;9.65;7.28;;;;;;;20.97;98.26;100616.69;4967278;28;20239;-81
2023/06/21 05:29:16;;;;;;;9.20;7.30;;;;;;;21.03;98.29;100624.19;4972366;28;20227;-83
2023/06/21 05:31:44;;;;;;;8.90;6.93;;;;;;;21.14;98.39;100639.25;4965028;28;20215;-83
2023/06/21 05:34:11;;;;;;;7.30;6.55;;;;;;;21.24;98.38;100636.44;4969983;28;20208;-84
2023/06/21 05:36:37;;;;;;;6.82;6.00;;;;;;;21.32;97.91;100645.41;4967972;28;20213;-84
2023/06/21 05:39:04;;;;;;;6.20;5.60;;;;;;;21.39;97.55;100643.75;4972934;28;20232;-84
2023/06/21 05:41:30;;;;;;;7.32;5.88;;;;;;;21.49;96.51;100657.16;4976822;28;20211;-83
2023/06/21 05:43:57;;;;;;;6.35;5.80;;;;;;;21.56;95.71;100657.31;4980987;28;20212;-83
2023/06/21 05:46:23;;;;;;;6.30;5.72;;;;;;;21.62;94.47;100662.06;4973638;28;20235;-85
2023/06/21 05:48:51;;;;;;;6.72;6.03;;;;;;;21.62;93.22;100664.78;4971541;28;20232;-84
2023/06/21 05:51:18;;;;;;;7.05;6.20;;;;;;;21.63;92.47;100666.47;4969318;28;20208;-85
2023/06/21 05:53:47;;;;;;;6.57;5.97;;;;;;;21.63;91.93;100661.91;4968707;28;20215;-85
2023/06/21 05:56:14;;;;;;;7.68;5.50;;;;;;;21.64;90.76;100673.59;4969462;28;20566;-83
2023/06/21 05:58:40;;;;;;;7.30;6.15;;;;;;;21.66;90.28;100671.56;4971844;28;20711;-84
2023/06/21 06:01:07;;;;;;;6.43;5.53;;;;;;;21.71;89.83;100683.59;4972928;28;20682;-84
2023/06/21 06:03:33;;;;;;;6.20;5.70;;;;;;;21.79;89.27;100688.19;4970677;28;20200;-83
2023/06/21 06:06:01;;;;;;;5.80;5.20;;;;;;;21.89;88.87;100688.00;4970446;28;20610;-83
2023/06/21 06:08:27;;;;;;;8.18;5.60;;;;;;;21.99;88.12;100691.41;4966136;28;20224;-84
2023/06/21 06:10:54;;;;;;;5.78;5.18;;;;;;;22.08;87.25;100693.97;4972653;28;20212;-83
2023/06/21 06:13:21;;;;;;;4.90;4.38;;;;;;;22.19;86.45;100684.66;4966229;28;20308;-84
2023/06/21 06:15:47;;;;;;;5.53;4.97;;;;;;;22.31;85.64;100695.97;4971600;28;20204;-84
2023/06/21 06:18:14;;;;;;;5.70;4.82;;;;;;;22.37;84.17;100688.00;4966908;28;20717;-83
2023/06/21 06:20:40;;;;;;;5.85;5.25;;;;;;;22.50;83.98;100699.16;4964451;28;20857;-83
2023/06/21 06:23:11;;;;;;;5.18;4.68;;;;;;;22.63;83.71;100701.34;4967691;28;20320;-84
2023/06/21 06:25:37;;;;;;;6.43;5.82;;;;;;;22.73;82.29;100691.16;4968162;28;20228;-83
2023/06/21 06:28:04;;;;;;;6.43;4.95;;;;;;;22.83;81.02;100699.09;4963857;28;20236;-84
2023/06/21 06:30:30;;;;;;;5.50;4.90;;;;;;;22.93;80.10;100694.31;4970492;28;20219;-86
2023/06/21 06:32:57;;;;;;;4.28;3.88;;;;;;;23.01;79.07;100701.59;4964972;28;20212;-86
2023/06/21 06:35:24;;;;;;;4.85;4.40;;;;;;;23.08;78.17;100694.44;4969061;28;20263;-84
2023/06/21 06:37:50;;;;;;;6.55;4.32;;;;;;;23.14;78.04;100694.56;4967310;28;20743;-84
2023/06/21 06:40:18;;;;;;;5.20;4.70;;;;;;;23.23;78.07;100703.53;4963681;28;20212;-84
2023/06/21 06:42:44;;;;;;;4.78;4.32;;;;;;;23.31;77.65;100713.47;4968649;28;20212;-84
2023/06/21 06:45:11;;;;;;;6.50;4.47;;;;;;;23.41;77.55;100714.97;4968099;28;20208;-84
2023/06/21 06:47:38;;;;;;;4.72;4.32;;;;;;;23.50;77.16;100724.75;4969196;28;20230;-84
2023/06/21 06:50:05;;;;;;;4.80;4.15;;;;;;;23.58;76.35;100729.34;4964164;28;20208;-84
2023/06/21 06:52:32;;;;;;;4.80;4.28;;;;;;;23.67;76.02;100722.81;4965823;28;20295;-84
2023/06/21 06:54:58;;;;;;;5.07;4.57;;;;;;;23.77;74.93;100718.00;4966966;28;20214;-83
2023/06/21 06:57:26;;;;;;;6.03;4.35;;;;;;;23.85;74.36;100714.34;4970983;28;20283;-84
2023/06/21 06:59:54;;;;;;;4.35;3.95;;;;;;;23.90;73.34;100714.66;4963012;28;20277;-84
2023/06/21 07:02:21;;;;;;;4.28;3.88;;;;;;;23.96;72.78;100718.53;4966414;28;20294;-84
2023/06/21 07:04:47;;;;;;;4.63;4.25;;;;;;;23.96;71.59;100724.81;4968340;28;20231;-84
2023/06/21 07:07:14;;;;;;;4.57;4.18;;;;;;;23.97;71.14;100733.84;4973019;28;20226;-84
2023/06/21 07:09:40;;;;;;;4.30;3.90;;;;;;;23.99;71.67;100731.78;4972747;28;20227;-84
2023/06/21 07:12:08;;;;;;;4.18;3.78;;;;;;;24.04;70.91;100741.06;4973085;28;20600;-85
2023/06/21 07:14:35;;;;;;;4.25;3.85;;;;;;;;;;4966426;28;20553;-84
2023/06/21 07:17:02;;;;;;;4.35;3.95;;;;;;;24.13;70.19;100742.72;4974480;28;20211;-84
2023/06/21 07:19:28;;;;;;;5.10;3.92;;;;;;;24.20;70.29;100759.13;4962469;28;20231;-84
2023/06/21 07:21:55;;;;;;;4.10;3.80;;;;;;;24.21;68.99;100761.69;4969486;28;20210;-83
2023/06/21 07:24:21;;;;;;;5.07;4.25;;;;;;;24.23;69.25;100766.94;4969268;28;20211;-84
2023/06/21 07:26:48;;;;;;;6.13;4.30;;;;;;;24.25;69.07;100762.19;4971707;28;20228;-84
2023/06/21 07:29:14;;;;;;;11.30;5.10;;;;;;;24.22;69.03;100765.25;4967920;28;20228;-84
2023/06/21 07:31:42;;;;;;;5.90;4.68;;;;;;;24.26;69.29;100765.75;4968944;28;20783;-83
2023/06/21 07:34:08;;;;;;;5.80;5.35;;;;;;;24.31;69.62;100766.91;4966972;28;20639;-85
2023/06/21 07:36:35;;;;;;;6.40;5.90;;;;;;;24.36;69.59;100769.94;4970740;28;20715;-84
2023/06/21 07:39:02;;;;;;;6.55;5.75;;;;;;;24.37;69.02;100771.59;4971233;28;20601;-84
2023/06/21 07:41:28;;;;;;;6.78;6.18;;;;;;;24.48;69.15;100768.47;4964370;28;20217;-84
2023/06/21 07:43:54;;;;;;;6.53;6.03;;;;;;;24.54;68.55;100777.78;4973210;28;20215;-84
2023/06/21 07:46:21;;;;;;;8.48;6.90;;;;;;;24.59;68.28;100769.88;4978152;28;20219;-84
2023/06/21 07:48:49;;;;;;;7.95;7.15;;;;;;;24.64;67.87;100778.34;4973450;28;20271;-84
2023/06/21 07:51:15;;;;;;;7.95;7.20;;;;;;;24.69;67.67;100769.63;4959091;28;20217;-85
2023/06/21 07:53:42;;;;;;;7.22;6.63;;;;;;;24.72;67.50;100777.44;4975365;28;20660;-85
2023/06/21 07:56:13;;;;;;;8.63;7.57;;;;;;;24.77;67.26;100775.81;4975613;28;20542;-85
2023/06/21 07:58:41;;;;;;;7.13;6.43;;;;;;;24.82;65.60;100773.38;4975711;28;20315;-84
2023/06/21 08:01:08;;;;;;;6.65;6.05;;;;;;;24.88;65.44;100774.53;4970681;28;20224;-85
2023/06/21 08:03:34;;;;;;;6.35;5.82;;;;;;;24.98;65.31;100777.00;4973450;28;20219;-83
2023/06/21 08:06:02;;;;;;;6.70;5.55;;;;;;;25.07;64.91;100778.59;4975930;28;20215;-84
2023/06/21 08:08:29;;;;;;;6.40;5.78;;;;;;;25.16;64.74;100774.75;4976480;28;20236;-83
2023/06/21 08:10:56;;;;;;;6.70;6.10;;;;;;;25.26;64.82;100773.41;4975059;28;20211;-84
2023/06/21 08:13:23;;;;;;;6.68;6.00;;;;;;;25.44;64.81;100781.19;4956461;28;20568;-84
2023/06/21 08:15:51;;;;;;;6.45;5.78;;;;;;;25.56;63.62;100773.38;4967417;28;20216;-84
2023/06/21 08:18:17;;;;;;;6.28;5.78;;;;;;;25.67;62.91;100778.34;4974072;28;20249;-84
2023/06/21 08:20:44;;;;;;;7.15;6.45;;;;;;;25.76;61.63;100770.91;4975183;28;20204;-83
2023/06/21 08:23:11;;;;;;;6.32;5.78;;;;;;;25.88;62.67;100772.09;4974926;28;20825;-83
2023/06/21 08:25:38;;;;;;;6.72;5.97;;;;;;;25.94;61.24;100766.72;4970380;28;20204;-83
2023/06/21 08:28:05;;;;;;;6.97;6.28;;;;;;;26.07;61.50;100765.13;4963837;28;20239;-85
2023/06/21 08:30:31;;;;;;;7.10;6.50;;;;;;;26.17;59.89;100755.56;4971618;28;20207;-84
2023/06/21 08:32:58;;;;;;;7.03;6.30;;;;;;;26.25;59.26;100758.19;4966341;28;20215;-85
2023/06/21 08:35:24;;;;;;;6.90;6.40;;;;;;;26.35;59.29;100763.31;4974551;28;20687;-85
2023/06/21 08:37:55;;;;;;;7.82;5.90;;;;;;;26.43;59.23;100763.19;4974315;28;20204;-85
2023/06/21 08:40:25;;;;;;;6.55;5.90;;;;;;;26.52;58.87;100758.41;4974837;28;20623;-85
2023/06/21 08:42:52;;;;;;;6.43;5.82;;;;;;;26.60;58.51;100763.75;4974046;28;20216;-84
2023/06/21 08:45:19;;;;;;;6.85;6.13;;;;;;;26.71;58.14;100765.06;4974638;28;20614;-84
2023/06/21 08:47:46;;;;;;;6.05;5.45;;;;;;;26.79;57.66;100771.25;4974339;28;20314;-84
2023/06/21 08:50:16;;;;;;;7.28;6.57;;;;;;;26.88;57.13;100772.75;4972808;28;20219;-85
2023/06/21 08:52:44;;;;;;;6.47;5.97;;;;;;;26.91;57.28;100775.09;4960238;28;20950;-86
2023/06/21 08:55:13;;;;;;;6.82;6.25;;;;;;;26.95;57.38;100776.41;4974084;28;20212;-85
2023/06/21 08:57:47;;;;;;;6.25;5.75;;;;;;;27.06;57.97;100785.94;4974133;28;20291;-84
2023/06/21 09:00:19;;;;;;;7.65;6.85;;;;;;;27.19;57.23;100786.03;4957065;28;20255;-83
2023/06/21 09:02:53;;;;;;;6.25;5.75;;;;;;;27.28;55.83;100781.22;4967950;28;20215;-84
2023/06/21 09:05:26;;;;;;;8.02;6.15;;;;;;;27.28;55.44;100794.91;4974932;28;20199;-83
2023/06/21 09:07:54;;;;;;;6.85;6.25;;;;;;;27.28;55.55;100792.16;4967981;28;20228;-86
2023/06/21 09:10:25;;;;;;;6.18;5.68;;;;;;;27.35;55.94;100795.78;4974169;28;20204;-84
2023/06/21 09:12:56;;;;;;;9.73;6.50;;;;;;;27.43;55.27;100795.59;4966387;28;20282;-85
2023/06/21 09:15:23;;;;;;;7.55;6.85;;;;;;;27.48;55.20;100795.00;4973967;28;20208;-85
2023/06/21 09:17:50;;;;;;;7.13;6.53;;;;;;;27.52;54.91;100801.75;4974881;28;20258;-85
2023/06/21 09:20:18;;;;;;;7.65;7.05;;;;;;;27.53;54.73;100796.09;4964328;28;20211;-84
2023/06/21 09:22:46;;;;;;;6.72;6.22;;;;;;;27.57;54.49;100794.66;4964407;28;20215;-84
2023/06/21 09:25:13;;;;;;;7.00;6.35;;;;;;;27.57;54.33;100802.88;4973823;28;20684;-84
2023/06/21 09:27:39;;;;;;;7.13;6.53;;;;;;;27.50;54.03;100804.69;4973801;28;20693;-86
2023/06/21 09:30:09;;;;;;;6.85;6.28;;;;;;;27.44;54.03;100807.38;4976217;28;20209;-85
2023/06/21 09:32:36;;;;;;;6.35;5.75;;;;;;;27.43;54.34;100806.53;4966147;28;20290;-84
2023/06/21 09:35:03;;;;;;;7.25;6.55;;;;;;;27.43;54.35;100814.75;4974682;28;20216;-84
2023/06/21 09:37:34;;;;;;;7.03;6.53;;;;;;;27.51;54.74;100811.84;4973738;28;20192;-85
2023/06/21 09:40:01;;;;;;;6.50;5.97;;;;;;;27.56;54.18;100806.63;4958190;28;20646;-85
2023/06/21 09:42:28;;;;;;;6.18;5.68;;;;;;;27.59;53.49;100811.69;4968792;28;20226;-85
2023/06/21 09:44:55;;;;;;;5.70;5.20;;;;;;;27.58;52.71;100803.72;4973529;28;20688;-85
2023/06/21 09:47:23;;;;;;;6.47;5.97;;;;;;;27.58;52.87;100806.44;4973826;28;20319;-84
2023/06/21 09:49:50;;;;;;;6.60;5.72;;;;;;;27.61;53.56;100806.88;4982598;28;20250;-85
2023/06/21 09:52:22;;;;;;;6.15;5.55;;;;;;;27.69;52.96;100811.31;4993492;28;20218;-85
2023/06/21 09:54:48;;;;;;;6.63;6.13;;;;;;;27.71;53.23;100816.59;4987185;28;20279;-85
2023/06/21 09:57:16;;;;;;;6.72;6.13;;;;;;;27.75;52.89;100817.88;4963702;28;20216;-84
2023/06/21 09:59:48;;;;;;;6.93;6.32;;;;;;;27.80;53.90;100818.09;4967069;28;20714;-86
2023/06/21 10:02:15;;;;;;;6.95;6.35;;;;;;;27.85;53.71;100810.13;4973222;28;20191;-83
2023/06/21 10:04:44;;;;;;;6.35;5.72;;;;;;;27.89;53.01;100817.72;4968689;28;20829;-85
2023/06/21 10:07:14;;;;;;;6.35;5.88;;;;;;;27.92;52.73;100822.78;4953923;28;20582;-84
2023/06/21 10:09:41;;;;;;;6.15;5.63;;;;;;;27.97;52.93;100814.78;4958571;28;20220;-84
2023/06/21 10:12:10;;;;;;;8.13;7.43;;;;;;;28.03;51.92;100818.59;4973119;28;20225;-84
2023/06/21 10:14:36;;;;;;;7.50;6.80;;;;;;;28.12;51.73;100822.00;4973094;28;20200;-83
2023/06/21 10:17:04;;;;;;;6.88;6.38;;;;;;;28.19;51.25;100826.44;4972747;28;20204;-85
2023/06/21 10:19:30;;;;;;;6.45;5.93;;;;;;;28.23;50.81;100830.47;4972837;28;20224;-84
2023/06/21 10:22:05;;;;;;;6.65;5.93;;;;;;;28.28;50.94;100822.47;4973194;28;20215;-85
2023/06/21 10:24:37;;;;;;;6.95;6.28;;;;;;;28.32;49.79;100829.19;4974627;28;20184;-83
2023/06/21 10:27:06;;;;;;;6.72;6.22;;;;;;;28.38;49.73;100827.53;4973082;28;20192;-83
2023/06/21 10:29:34;;;;;;;7.25;6.47;;;;;;;28.38;49.15;100833.00;4952749;28;20699;-83
2023/06/21 10:32:01;;;;;;;7.13;6.53;;;;;;;28.37;49.64;100831.31;4952774;28;20209;-83
2023/06/21 10:34:40;;;;;;;6.78;6.28;;;;;;;28.38;49.42;100834.91;4956182;28;20576;-83
2023/06/21 10:37:18;;;;;;;7.57;6.22;;;;;;;28.36;48.74;100842.47;4972200;28;20565;-84
2023/06/21 10:39:50;;;;;;;7.03;6.53;;;;;;;28.32;48.53;100836.56;4970181;28;20232;-83
2023/06/21 10:42:17;;;;;;;7.82;7.10;;;;;;;28.30;48.55;100838.69;4971754;28;20192;-84
2023/06/21 10:44:43;;;;;;;7.45;6.85;;;;;;;28.29;48.37;100835.13;4972022;28;20212;-84
2023/06/21 10:47:10;;;;;;;7.28;6.70;;;;;;;28.30;48.56;100838.69;4972576;28;20212;-84
2023/06/21 10:49:37;;;;;;;7.32;6.68;;;;;;;28.28;47.93;100846.28;4972373;28;20231;-85
2023/06/21 10:52:06;;;;;;;7.72;7.13;;;;;;;28.25;48.25;100841.22;4972206;28;20304;-85
2023/06/21 10:54:34;;;;;;;7.45;6.95;;;;;;;28.27;48.66;100844.59;4971973;28;20212;-84
2023/06/21 10:57:01;;;;;;;8.05;7.35;;;;;;;28.36;48.91;100845.22;4973407;28;20627;-84
2023/06/21 10:59:28;;;;;;;8.57;7.93;;;;;;;28.47;48.80;100852.84;4972714;28;20235;-84
2023/06/21 11:01:54;;;;;;;7.70;7.10;;;;;;;28.47;48.23;100847.34;4973581;28;20208;-83
2023/06/21 11:04:21;;;;;;;8.07;7.43;;;;;;;28.44;48.05;100853.25;4974025;28;20212;-85
2023/06/21 11:06:48;;;;;;;7.68;7.07;;;;;;;28.43;48.19;100859.78;4973344;28;20878;-86
2023/06/21 11:09:18;;;;;;;7.85;7.25;;;;;;;28.37;48.45;100855.13;4973413;28;20239;-85
2023/06/21 11:11:51;;;;;;;7.80;6.93;;;;;;;28.35;48.30;100863.56;4973495;28;20208;-85
2023/06/21 11:14:21;;;;;;;7.57;6.97;;;;;;;28.39;47.80;100855.75;4972725;28;20192;-86
2023/06/21 11:16:48;;;;;;;8.82;8.20;;;;;;;28.44;47.73;100861.47;4973536;28;20215;-85
2023/06/21 11:19:15;;;;;;;8.73;8.13;;;;;;;28.52;47.78;100861.25;4972738;28;20235;-85
2023/06/21 11:21:46;;;;;;;9.25;8.52;;;;;;;28.57;47.98;100865.06;4973427;28;20675;-84
2023/06/21 11:24:15;;;;;;;9.27;8.57;;;;;;;28.58;47.21;100868.66;4972696;28;20220;-84
2023/06/21 11:26:58;;;;;;;8.98;8.25;;;;;;;28.59;48.01;100873.91;4973058;28;20734;-84